createdAt,value
2023-01-20T00:01:18.453Z,9.07
2023-01-20T00:03:45.692Z,8.57
2023-01-20T00:06:12.464Z,7.63
2023-01-20T00:08:38.890Z,7.70
2023-01-20T00:11:07.155Z,7.27
2023-01-20T00:13:34.647Z,7.20
2023-01-20T00:16:10.412Z,7.90
2023-01-20T00:18:37.200Z,7.27
2023-01-20T00:21:12.189Z,7.53
2023-01-20T00:23:40.193Z,7.60
2023-01-20T00:26:09.302Z,7.63
2023-01-20T00:28:36.213Z,8.00
2023-01-20T00:31:13.151Z,7.87
2023-01-20T00:33:40.022Z,7.50
2023-01-20T00:36:07.283Z,7.67
2023-01-20T00:38:33.768Z,7.90
2023-01-20T00:41:00.373Z,7.60
2023-01-20T00:43:27.090Z,7.47
2023-01-20T00:45:53.563Z,7.53
2023-01-20T00:48:19.904Z,7.43
2023-01-20T00:50:46.286Z,6.90
2023-01-20T00:53:13.693Z,7.90
2023-01-20T00:55:40.413Z,7.60
2023-01-20T00:58:06.813Z,7.63
2023-01-20T01:00:33.364Z,7.07
2023-01-20T01:02:59.860Z,7.90
2023-01-20T01:05:26.182Z,7.97
2023-01-20T01:07:52.688Z,8.60
2023-01-20T01:10:19.258Z,9.13
2023-01-20T01:12:45.607Z,9.00
2023-01-20T01:15:12.664Z,8.63
2023-01-20T01:17:39.306Z,9.43
2023-01-20T01:20:06.249Z,9.17
2023-01-20T01:22:33.087Z,9.37
2023-01-20T01:24:59.519Z,8.77
2023-01-20T01:27:28.135Z,8.77
2023-01-20T01:29:55.681Z,9.07
2023-01-20T01:32:22.913Z,8.50
2023-01-20T01:34:49.378Z,8.83
2023-01-20T01:37:16.302Z,8.67
2023-01-20T01:39:42.713Z,8.83
2023-01-20T01:42:18.508Z,8.17
2023-01-20T01:45:27.857Z,8.03
2023-01-20T01:47:58.919Z,8.97
2023-01-20T01:50:45.598Z,8.93
2023-01-20T01:53:13.714Z,8.93
2023-01-20T01:55:45.892Z,8.27
2023-01-20T01:58:16.655Z,8.70
2023-01-20T02:00:44.107Z,8.73
2023-01-20T02:03:11.544Z,9.20
2023-01-20T02:05:39.413Z,9.10
2023-01-20T02:08:08.025Z,9.43
2023-01-20T02:10:34.529Z,9.50
2023-01-20T02:13:01.539Z,8.93
2023-01-20T02:15:35.134Z,9.00
2023-01-20T02:18:21.876Z,9.10
2023-01-20T02:20:57.078Z,8.60
2023-01-20T02:24:09.622Z,10.27
2023-01-20T02:26:42.309Z,9.00
2023-01-20T02:29:30.028Z,9.47
2023-01-20T02:32:22.977Z,9.13
2023-01-20T02:35:03.073Z,8.80
2023-01-20T02:37:37.813Z,9.57
2023-01-20T02:40:17.497Z,9.23
2023-01-20T02:42:54.297Z,8.83
2023-01-20T02:45:31.818Z,9.50
2023-01-20T02:48:35.303Z,9.27
2023-01-20T02:51:07.690Z,9.27
2023-01-20T02:53:43.608Z,9.30
2023-01-20T02:56:12.554Z,8.83
2023-01-20T02:58:55.479Z,9.67
2023-01-20T03:01:32.105Z,9.43
2023-01-20T03:04:02.287Z,8.97
2023-01-20T03:06:36.562Z,9.40
2023-01-20T03:09:07.589Z,9.07
2023-01-20T03:11:38.192Z,8.70
2023-01-20T03:14:08.767Z,9.73
2023-01-20T03:16:35.600Z,9.70
2023-01-20T03:19:02.396Z,10.10
2023-01-20T03:21:28.837Z,8.83
2023-01-20T03:24:00.461Z,10.10
2023-01-20T03:26:26.966Z,8.77
2023-01-20T03:28:54.649Z,9.63
2023-01-20T03:31:22.849Z,8.73
2023-01-20T03:33:53.122Z,10.00
2023-01-20T03:36:21.881Z,9.30
2023-01-20T03:38:49.607Z,9.47
2023-01-20T03:41:50.982Z,9.00
2023-01-20T03:44:43.650Z,9.87
2023-01-20T03:47:43.107Z,9.60
2023-01-20T03:50:21.489Z,9.17
2023-01-20T03:52:53.504Z,9.57
2023-01-20T03:55:33.636Z,9.63
2023-01-20T03:58:08.925Z,9.20
2023-01-20T04:00:39.753Z,9.43
2023-01-20T04:03:12.420Z,9.80
2023-01-20T04:05:40.132Z,9.43
2023-01-20T04:08:09.893Z,9.50
2023-01-20T04:10:41.068Z,9.30
2023-01-20T04:13:07.643Z,9.93
2023-01-20T04:15:40.150Z,9.50
2023-01-20T04:18:21.797Z,9.43
2023-01-20T04:20:51.714Z,10.03
2023-01-20T04:23:27.550Z,10.03
2023-01-20T04:25:53.930Z,9.73
2023-01-20T04:28:20.333Z,9.87
2023-01-20T04:30:46.886Z,9.53
2023-01-20T04:33:13.440Z,9.37
2023-01-20T04:35:40.848Z,9.67
2023-01-20T04:38:07.312Z,9.20
2023-01-20T04:40:33.884Z,9.07
2023-01-20T04:43:00.227Z,9.77
2023-01-20T04:45:26.694Z,10.37
2023-01-20T04:47:53.326Z,9.23
2023-01-20T04:50:19.817Z,9.93
2023-01-20T04:52:46.246Z,9.47
2023-01-20T04:55:13.048Z,11.00
2023-01-20T04:57:40.193Z,9.97
2023-01-20T05:00:07.547Z,10.00
2023-01-20T05:02:34.077Z,10.53
2023-01-20T05:05:00.518Z,10.17
2023-01-20T05:07:26.940Z,9.40
2023-01-20T05:09:53.391Z,9.50
2023-01-20T05:12:19.842Z,10.10
2023-01-20T05:14:46.340Z,10.13
2023-01-20T05:17:12.722Z,9.53
2023-01-20T05:19:39.055Z,10.57
2023-01-20T05:22:05.538Z,10.47
2023-01-20T05:24:31.914Z,10.80
2023-01-20T05:27:01.539Z,10.43
2023-01-20T05:29:29.106Z,11.20
2023-01-20T05:31:55.573Z,10.60
2023-01-20T05:34:22.054Z,10.57
2023-01-20T05:36:54.870Z,10.87
2023-01-20T05:39:21.803Z,10.93
2023-01-20T05:41:49.428Z,11.00
2023-01-20T05:44:16.367Z,11.77
2023-01-20T05:46:42.837Z,9.83
2023-01-20T05:49:12.356Z,10.37
2023-01-20T05:51:38.756Z,10.50
2023-01-20T05:54:05.249Z,9.43
2023-01-20T05:56:31.730Z,10.60
2023-01-20T05:58:58.118Z,9.33
2023-01-20T06:01:24.809Z,8.87
2023-01-20T06:03:51.266Z,9.43
2023-01-20T06:06:18.415Z,9.27
2023-01-20T06:08:45.394Z,9.40
2023-01-20T06:11:13.691Z,9.03
2023-01-20T06:13:40.197Z,7.73
2023-01-20T06:16:07.521Z,7.67
2023-01-20T06:18:34.461Z,7.60
2023-01-20T06:21:01.048Z,7.53
2023-01-20T06:23:27.706Z,7.03
2023-01-20T06:26:12.922Z,7.30
2023-01-20T06:28:39.949Z,7.57
2023-01-20T06:31:16.900Z,6.73
2023-01-20T06:33:43.780Z,7.30
2023-01-20T06:36:13.654Z,8.68
2023-01-20T06:38:40.609Z,9.67
2023-01-20T06:41:10.529Z,7.10
2023-01-20T06:43:40.087Z,7.47
2023-01-20T06:46:09.791Z,6.53
2023-01-20T06:48:37.152Z,6.00
2023-01-20T06:51:06.117Z,6.20
2023-01-20T06:53:32.678Z,5.93
2023-01-20T06:56:00.585Z,6.83
2023-01-20T06:58:30.530Z,6.10
2023-01-20T07:01:06.960Z,6.70
2023-01-20T07:03:33.468Z,6.60
2023-01-20T07:06:02.185Z,5.50
2023-01-20T07:08:29.488Z,5.90
2023-01-20T07:10:56.102Z,6.87
2023-01-20T07:13:22.744Z,7.53
2023-01-20T07:15:49.133Z,6.30
2023-01-20T07:18:15.639Z,6.40
2023-01-20T07:20:43.837Z,5.60
2023-01-20T07:23:10.314Z,7.93
2023-01-20T07:25:38.065Z,6.93
2023-01-20T07:28:04.924Z,6.30
2023-01-20T07:30:31.628Z,5.83
2023-01-20T07:32:58.198Z,5.30
2023-01-20T07:35:24.628Z,5.93
2023-01-20T07:37:51.098Z,5.97
2023-01-20T07:40:17.878Z,5.70
2023-01-20T07:42:44.332Z,6.57
2023-01-20T07:45:10.976Z,5.10
2023-01-20T07:47:37.358Z,6.47
2023-01-20T07:50:04.222Z,6.00
2023-01-20T07:52:30.570Z,6.10
2023-01-20T07:54:57.139Z,6.07
2023-01-20T07:57:23.790Z,6.57
2023-01-20T07:59:50.139Z,6.70
2023-01-20T08:02:16.602Z,5.83
2023-01-20T08:04:43.212Z,5.80
2023-01-20T08:07:09.762Z,6.60
2023-01-20T08:09:36.105Z,5.50
2023-01-20T08:12:02.675Z,5.93
2023-01-20T08:14:29.080Z,6.13
2023-01-20T08:16:55.612Z,5.27
2023-01-20T08:19:22.026Z,5.43
2023-01-20T08:21:48.454Z,5.73
2023-01-20T08:24:15.009Z,5.50
2023-01-20T08:26:41.359Z,6.10
2023-01-20T08:29:09.919Z,5.87
2023-01-20T08:31:37.150Z,5.80
2023-01-20T08:34:04.343Z,5.90
2023-01-20T08:36:33.218Z,5.37
2023-01-20T08:39:02.751Z,5.87
2023-01-20T08:41:35.198Z,6.07
2023-01-20T08:44:04.400Z,5.10
2023-01-20T08:46:31.821Z,6.07
2023-01-20T08:48:58.338Z,5.50
2023-01-20T08:51:30.078Z,5.80
2023-01-20T08:53:56.816Z,6.10
2023-01-20T08:56:23.247Z,6.13
2023-01-20T08:58:49.784Z,5.40
2023-01-20T09:01:19.770Z,5.87
2023-01-20T09:04:02.970Z,6.97
2023-01-20T09:06:36.656Z,6.50
2023-01-20T09:09:04.589Z,6.23
2023-01-20T09:11:31.792Z,6.00
2023-01-20T09:13:58.257Z,6.00
2023-01-20T09:16:24.770Z,5.77
2023-01-20T09:18:51.147Z,6.20
2023-01-20T09:21:17.527Z,6.47
2023-01-20T09:23:43.918Z,6.10
2023-01-20T09:26:10.630Z,5.77
2023-01-20T09:28:37.053Z,5.33
2023-01-20T09:31:06.608Z,6.10
2023-01-20T09:33:36.077Z,6.13
2023-01-20T09:36:03.371Z,5.97
2023-01-20T09:38:48.536Z,6.00
2023-01-20T09:41:43.958Z,6.70
2023-01-20T09:44:23.130Z,5.60
2023-01-20T09:47:19.472Z,6.03
2023-01-20T09:50:19.929Z,6.10
2023-01-20T09:53:02.598Z,5.97
2023-01-20T09:55:51.490Z,5.70
2023-01-20T09:58:45.043Z,6.30
2023-01-20T10:01:18.422Z,6.27
2023-01-20T10:03:55.803Z,6.43
2023-01-20T10:07:03.235Z,5.53
2023-01-20T10:09:57.215Z,5.43
2023-01-20T10:12:41.059Z,6.00
2023-01-20T10:15:24.510Z,5.70
2023-01-20T10:17:56.603Z,6.03
2023-01-20T10:20:52.574Z,6.87
2023-01-20T10:23:26.237Z,6.03
2023-01-20T10:26:09.386Z,5.83
2023-01-20T10:28:40.479Z,6.10
2023-01-20T10:31:07.165Z,6.10
2023-01-20T10:33:42.016Z,4.90
2023-01-20T10:36:15.163Z,5.73
2023-01-20T10:38:55.704Z,6.23
2023-01-20T10:41:31.107Z,5.60
2023-01-20T10:43:59.330Z,5.70
2023-01-20T10:46:50.610Z,5.87
2023-01-20T10:49:34.197Z,5.30
2023-01-20T10:52:18.840Z,5.87
2023-01-20T10:55:02.277Z,5.63
2023-01-20T10:57:28.700Z,5.77
2023-01-20T11:00:02.207Z,5.60
2023-01-20T11:02:37.886Z,6.40
2023-01-20T11:05:25.648Z,6.13
2023-01-20T11:07:53.881Z,5.50
2023-01-20T11:10:29.321Z,6.00
2023-01-20T11:12:59.674Z,5.87
2023-01-20T11:15:32.427Z,5.63
2023-01-20T11:18:13.853Z,5.77
2023-01-20T11:20:47.340Z,5.83
2023-01-20T11:23:32.297Z,5.20
2023-01-20T11:26:11.269Z,5.27
2023-01-20T11:28:47.835Z,5.10
2023-01-20T11:31:15.846Z,5.57
2023-01-20T11:33:59.278Z,5.23
2023-01-20T11:36:27.012Z,5.30
2023-01-20T11:38:56.195Z,5.50
2023-01-20T11:41:30.876Z,5.50
2023-01-20T11:43:59.773Z,5.03
2023-01-20T11:46:32.737Z,5.10
2023-01-20T11:49:14.259Z,5.40
2023-01-20T11:51:55.636Z,5.47
2023-01-20T11:54:28.345Z,4.73
2023-01-20T11:57:04.737Z,5.40
2023-01-20T11:59:34.879Z,5.47
2023-01-20T12:02:23.612Z,5.60
2023-01-20T12:05:23.096Z,5.23
2023-01-20T12:07:52.377Z,5.13
2023-01-20T12:10:32.099Z,5.53
2023-01-20T12:13:05.452Z,5.93
2023-01-20T12:15:34.909Z,5.80
2023-01-20T12:19:01.220Z,5.60
2023-01-20T12:21:38.509Z,5.90
2023-01-20T12:24:11.703Z,6.37
2023-01-20T12:26:38.105Z,5.87
2023-01-20T12:29:23.403Z,5.80
2023-01-20T12:31:50.246Z,5.53
2023-01-20T12:34:26.494Z,5.30
2023-01-20T12:37:27.996Z,5.53
2023-01-20T12:40:05.225Z,4.73
2023-01-20T12:43:16.159Z,5.43
2023-01-20T12:46:03.705Z,5.07
2023-01-20T12:48:51.738Z,5.37
2023-01-20T12:51:27.074Z,5.30
2023-01-20T12:54:02.965Z,4.70
2023-01-20T12:56:53.359Z,5.33
2023-01-20T12:59:48.657Z,5.60
2023-01-20T13:02:37.275Z,5.60
2023-01-20T13:05:34.052Z,5.90
2023-01-20T13:08:16.006Z,6.43
2023-01-20T13:10:51.186Z,5.83
2023-01-20T13:13:55.839Z,5.90
2023-01-20T13:16:35.727Z,5.83
2023-01-20T13:19:27.564Z,6.50
2023-01-20T13:22:07.388Z,6.50
2023-01-20T13:24:35.089Z,6.03
2023-01-20T13:27:02.767Z,6.17
2023-01-20T13:29:42.809Z,6.40
2023-01-20T13:32:28.972Z,7.00
2023-01-20T13:34:55.829Z,6.67
2023-01-20T13:37:26.608Z,8.20
2023-01-20T13:39:54.983Z,8.23
2023-01-20T13:42:36.590Z,8.40
2023-01-20T13:45:12.602Z,7.63
2023-01-20T13:48:21.501Z,8.53
2023-01-20T13:50:50.318Z,6.53
2023-01-20T13:53:22.749Z,7.43
2023-01-20T13:55:51.813Z,6.47
2023-01-20T13:58:28.779Z,7.80
2023-01-20T14:01:00.442Z,7.83
2023-01-20T14:03:38.026Z,8.33
2023-01-20T14:06:07.696Z,8.07
2023-01-20T14:08:38.820Z,8.90
2023-01-20T14:11:17.971Z,8.63
2023-01-20T14:14:02.561Z,8.20
2023-01-20T14:16:36.768Z,7.83
2023-01-20T14:19:35.434Z,6.97
2023-01-20T14:22:16.299Z,6.97
2023-01-20T14:24:45.639Z,7.93
2023-01-20T14:27:29.551Z,7.57
2023-01-20T14:29:59.741Z,7.67
2023-01-20T14:32:34.868Z,8.23
2023-01-20T14:35:04.186Z,8.27
2023-01-20T14:37:40.768Z,7.53
2023-01-20T14:40:09.822Z,8.83
2023-01-20T14:42:38.697Z,8.27
2023-01-20T14:45:18.950Z,8.43
2023-01-20T14:47:45.975Z,7.47
2023-01-20T14:50:15.715Z,7.83
2023-01-20T14:52:42.991Z,8.53
2023-01-20T14:55:35.899Z,7.80
2023-01-20T14:58:08.455Z,8.40
2023-01-20T15:00:35.381Z,8.23
2023-01-20T15:03:14.129Z,8.33
2023-01-20T15:05:51.661Z,9.20
2023-01-20T15:08:25.247Z,9.43
2023-01-20T15:11:10.224Z,9.80
2023-01-20T15:13:38.105Z,10.63
2023-01-20T15:16:25.557Z,10.47
2023-01-20T15:19:14.485Z,10.40
2023-01-20T15:21:52.318Z,10.77
2023-01-20T15:24:20.465Z,10.67
2023-01-20T15:26:50.058Z,10.43
2023-01-20T15:29:35.589Z,10.07
2023-01-20T15:32:10.330Z,10.20
2023-01-20T15:34:36.718Z,9.77
2023-01-20T15:37:11.505Z,10.50
2023-01-20T15:39:38.074Z,10.33
2023-01-20T15:42:06.265Z,11.03
2023-01-20T15:44:32.642Z,9.70
2023-01-20T15:46:59.122Z,9.87
2023-01-20T15:49:25.763Z,9.80
2023-01-20T15:51:52.609Z,9.87
2023-01-20T15:54:19.224Z,10.23
2023-01-20T15:56:45.613Z,10.20
2023-01-20T15:59:13.110Z,9.70
2023-01-20T16:01:39.966Z,9.03
2023-01-20T16:04:06.553Z,8.87
2023-01-20T16:06:34.171Z,8.57
2023-01-20T16:09:01.879Z,8.40
2023-01-20T16:11:28.307Z,8.13
2023-01-20T16:13:54.863Z,8.57
2023-01-20T16:16:23.766Z,8.40
2023-01-20T16:18:50.324Z,7.67
2023-01-20T16:21:19.074Z,8.07
2023-01-20T16:23:45.662Z,8.20
2023-01-20T16:26:22.940Z,8.17
2023-01-20T16:28:54.426Z,8.20
2023-01-20T16:31:21.993Z,7.50
2023-01-20T16:33:48.627Z,7.57
2023-01-20T16:36:17.488Z,7.87
2023-01-20T16:38:44.917Z,7.90
2023-01-20T16:41:21.211Z,8.20
2023-01-20T16:43:47.890Z,7.37
2023-01-20T16:46:21.017Z,7.60
2023-01-20T16:48:47.666Z,7.53
2023-01-20T16:51:18.833Z,7.07
2023-01-20T16:53:45.553Z,8.17
2023-01-20T16:56:16.140Z,7.97
2023-01-20T16:58:43.563Z,7.50
2023-01-20T17:01:13.090Z,7.87
2023-01-20T17:03:43.079Z,7.57
2023-01-20T17:06:18.177Z,7.33
2023-01-20T17:08:50.620Z,7.63
2023-01-20T17:11:21.989Z,8.63
2023-01-20T17:13:48.572Z,7.80
2023-01-20T17:16:15.693Z,8.60
2023-01-20T17:18:45.273Z,8.57
2023-01-20T17:21:12.910Z,8.30
2023-01-20T17:23:40.216Z,8.27
2023-01-20T17:26:08.462Z,8.30
2023-01-20T17:28:35.586Z,7.93
2023-01-20T17:31:04.213Z,8.33
2023-01-20T17:33:31.213Z,8.13
2023-01-20T17:35:59.609Z,7.97
2023-01-20T17:38:28.811Z,7.50
2023-01-20T17:41:00.480Z,7.60
2023-01-20T17:43:34.734Z,7.80
2023-01-20T17:46:01.858Z,8.37
2023-01-20T17:48:28.365Z,8.70
2023-01-20T17:50:59.512Z,8.23
2023-01-20T17:53:26.805Z,8.73
2023-01-20T17:56:03.077Z,8.63
2023-01-20T17:58:37.877Z,8.77
2023-01-20T18:01:15.609Z,8.90
2023-01-20T18:03:43.591Z,8.53
2023-01-20T18:06:12.348Z,9.30
2023-01-20T18:08:39.247Z,8.70
2023-01-20T18:11:09.249Z,8.63
2023-01-20T18:13:36.365Z,8.37
2023-01-20T18:16:07.186Z,7.17
2023-01-20T18:18:33.889Z,8.67
2023-01-20T18:21:15.685Z,8.40
2023-01-20T18:23:43.319Z,8.13
2023-01-20T18:26:11.281Z,8.47
2023-01-20T18:28:37.958Z,8.27
2023-01-20T18:31:19.305Z,7.97
2023-01-20T18:33:48.153Z,8.47
2023-01-20T18:36:23.602Z,8.20
2023-01-20T18:38:59.439Z,8.77
2023-01-20T18:41:30.430Z,8.80
2023-01-20T18:43:57.767Z,8.50
2023-01-20T18:46:25.666Z,9.27
2023-01-20T18:48:54.577Z,9.27
2023-01-20T18:51:27.332Z,8.60
2023-01-20T18:54:07.373Z,9.47
2023-01-20T18:56:34.472Z,9.13
2023-01-20T18:59:02.241Z,9.23
2023-01-20T19:01:33.636Z,9.60
2023-01-20T19:04:04.387Z,10.10
2023-01-20T19:06:34.762Z,10.67
2023-01-20T19:09:01.617Z,12.10
2023-01-20T19:11:31.425Z,10.80
2023-01-20T19:13:58.962Z,13.53
2023-01-20T19:16:32.477Z,12.00
2023-01-20T19:19:01.633Z,13.37
2023-01-20T19:21:31.436Z,12.17
2023-01-20T19:24:01.322Z,12.10
2023-01-20T19:26:27.998Z,11.87
2023-01-20T19:29:02.515Z,12.27
2023-01-20T19:31:30.970Z,12.30
2023-01-20T19:33:58.131Z,12.30
2023-01-20T19:36:24.874Z,11.53
2023-01-20T19:38:54.232Z,11.83
2023-01-20T19:41:23.492Z,12.27
2023-01-20T19:43:57.512Z,11.20
2023-01-20T19:46:26.982Z,12.43
2023-01-20T19:48:55.551Z,12.17
2023-01-20T19:51:22.196Z,13.03
2023-01-20T19:53:50.164Z,12.97
2023-01-20T19:56:18.431Z,11.70
2023-01-20T19:58:46.324Z,13.47
2023-01-20T20:01:18.046Z,13.03
2023-01-20T20:03:44.657Z,14.47
2023-01-20T20:06:38.035Z,12.27
2023-01-20T20:09:06.691Z,11.57
2023-01-20T20:11:33.999Z,13.27
2023-01-20T20:14:02.326Z,12.27
2023-01-20T20:16:30.507Z,12.67
2023-01-20T20:18:57.743Z,13.10
2023-01-20T20:21:24.570Z,13.10
2023-01-20T20:23:53.128Z,12.70
2023-01-20T20:26:21.022Z,12.77
2023-01-20T20:28:47.478Z,11.77
2023-01-20T20:31:17.155Z,13.60
2023-01-20T20:33:45.401Z,12.63
2023-01-20T20:36:12.486Z,13.07
2023-01-20T20:38:38.974Z,12.53
2023-01-20T20:41:10.347Z,14.03
2023-01-20T20:43:38.027Z,14.03
2023-01-20T20:46:06.814Z,14.03
2023-01-20T20:48:34.028Z,13.57
2023-01-20T20:51:07.835Z,14.20
2023-01-20T20:53:35.142Z,13.80
2023-01-20T20:56:04.109Z,12.97
2023-01-20T20:58:31.683Z,13.87
2023-01-20T21:01:01.109Z,13.33
2023-01-20T21:03:27.767Z,16.70
2023-01-20T21:05:54.202Z,15.00
2023-01-20T21:08:20.806Z,13.80
2023-01-20T21:10:47.324Z,13.47
2023-01-20T21:13:13.650Z,13.17
2023-01-20T21:15:40.029Z,12.93
2023-01-20T21:18:06.365Z,12.70
2023-01-20T21:20:33.518Z,12.47
2023-01-20T21:23:01.445Z,11.77
2023-01-20T21:25:27.825Z,11.47
2023-01-20T21:27:54.260Z,11.70
2023-01-20T21:30:20.861Z,12.23
2023-01-20T21:32:47.250Z,11.83
2023-01-20T21:35:13.733Z,11.93
2023-01-20T21:37:40.113Z,11.57
2023-01-20T21:40:07.091Z,11.77
2023-01-20T21:42:33.514Z,12.47
2023-01-20T21:44:59.970Z,11.63
2023-01-20T21:47:26.460Z,11.40
2023-01-20T21:50:11.389Z,12.33
2023-01-20T21:52:45.234Z,12.53
2023-01-20T21:55:13.308Z,12.23
2023-01-20T21:57:39.682Z,11.93
2023-01-20T22:00:08.861Z,11.43
2023-01-20T22:02:35.779Z,10.20
2023-01-20T22:05:02.166Z,10.40
2023-01-20T22:07:28.581Z,11.27
2023-01-20T22:09:57.949Z,10.77
2023-01-20T22:12:24.656Z,10.30
2023-01-20T22:14:50.994Z,11.13
2023-01-20T22:17:17.539Z,10.67
2023-01-20T22:19:43.922Z,10.80
2023-01-20T22:22:10.746Z,11.63
2023-01-20T22:24:37.252Z,10.47
2023-01-20T22:27:03.699Z,11.13
2023-01-20T22:29:30.382Z,12.03
2023-01-20T22:31:59.389Z,11.43
2023-01-20T22:34:26.326Z,11.70
2023-01-20T22:36:55.614Z,10.93
2023-01-20T22:39:22.144Z,11.67
2023-01-20T22:41:48.477Z,11.97
2023-01-20T22:44:14.847Z,11.87
2023-01-20T22:46:41.312Z,11.67
2023-01-20T22:49:07.829Z,11.13
2023-01-20T22:51:34.274Z,12.10
2023-01-20T22:54:01.754Z,11.90
2023-01-20T22:56:31.358Z,11.03
2023-01-20T22:58:59.000Z,11.83
2023-01-20T23:01:32.450Z,10.73
2023-01-20T23:04:01.137Z,11.50
2023-01-20T23:06:28.915Z,11.43
2023-01-20T23:08:55.366Z,10.37
2023-01-20T23:11:23.048Z,11.70
2023-01-20T23:13:50.391Z,11.97
2023-01-20T23:16:19.327Z,12.13
2023-01-20T23:18:46.745Z,11.63
2023-01-20T23:21:13.619Z,12.87
2023-01-20T23:23:40.045Z,10.97
2023-01-20T23:26:16.687Z,11.90
2023-01-20T23:28:44.746Z,10.00
2023-01-20T23:31:14.828Z,11.03
2023-01-20T23:33:44.132Z,10.43
2023-01-20T23:36:14.004Z,10.37
2023-01-20T23:38:41.460Z,11.37
2023-01-20T23:41:07.787Z,10.53
2023-01-20T23:43:34.509Z,10.73
2023-01-20T23:46:03.497Z,10.60
2023-01-20T23:48:30.118Z,10.60
2023-01-20T23:50:59.744Z,11.20
2023-01-20T23:53:28.287Z,11.43
2023-01-20T23:56:11.301Z,11.30
2023-01-20T23:58:37.977Z,10.50
